createdAt,value
2019-02-28T00:01:43.255Z,21.50
2019-02-28T00:04:21.575Z,21.60
2019-02-28T00:06:58.574Z,21.50
2019-02-28T00:09:42.576Z,21.50
2019-02-28T00:12:20.023Z,21.50
2019-02-28T00:14:59.321Z,21.50
2019-02-28T00:17:42.755Z,21.50
2019-02-28T00:20:12.806Z,21.50
2019-02-28T00:22:50.585Z,21.50
2019-02-28T00:25:37.687Z,21.50
2019-02-28T00:28:13.594Z,21.50
2019-02-28T00:30:53.598Z,21.50
2019-02-28T00:33:32.595Z,21.50
2019-02-28T00:36:10.354Z,21.50
2019-02-28T00:38:49.599Z,21.50
2019-02-28T00:41:27.077Z,21.50
2019-02-28T00:44:08.608Z,21.50
2019-02-28T00:46:48.603Z,21.40
2019-02-28T00:49:28.605Z,21.50
2019-02-28T00:52:07.605Z,21.40
2019-02-28T00:54:51.843Z,21.40
2019-02-28T00:57:24.695Z,21.40
2019-02-28T01:00:05.555Z,21.40
2019-02-28T01:02:43.620Z,21.40
2019-02-28T01:05:23.730Z,21.40
2019-02-28T01:08:02.070Z,21.40
2019-02-28T01:10:40.174Z,21.40
2019-02-28T01:13:18.075Z,21.40
2019-02-28T01:15:59.633Z,21.40
2019-02-28T01:18:35.376Z,21.40
2019-02-28T01:21:08.092Z,21.40
2019-02-28T01:23:43.537Z,21.40
2019-02-28T01:26:23.664Z,21.40
2019-02-28T01:29:01.845Z,21.30
2019-02-28T01:31:42.521Z,21.30
2019-02-28T01:34:19.137Z,21.30
2019-02-28T01:36:56.321Z,21.40
2019-02-28T01:39:30.814Z,21.30
2019-02-28T01:42:08.134Z,21.40
2019-02-28T01:44:49.663Z,21.30
2019-02-28T01:47:30.663Z,21.30
2019-02-28T01:50:03.577Z,21.30
2019-02-28T01:52:44.469Z,21.40
2019-02-28T01:55:18.560Z,21.30
2019-02-28T01:57:49.000Z,21.30
2019-02-28T02:00:24.500Z,21.30
2019-02-28T02:03:02.672Z,21.30
2019-02-28T02:05:42.672Z,21.30
2019-02-28T02:08:26.130Z,21.30
2019-02-28T02:11:04.696Z,21.30
2019-02-28T02:13:43.158Z,21.30
2019-02-28T02:16:26.999Z,21.30
2019-02-28T02:19:06.702Z,21.30
2019-02-28T02:21:45.464Z,21.30
2019-02-28T02:24:27.719Z,21.30
2019-02-28T02:29:58.704Z,21.30
2019-02-28T02:32:38.714Z,21.20
2019-02-28T02:35:17.718Z,21.20
2019-02-28T02:37:57.734Z,21.20
2019-02-28T02:40:36.726Z,21.20
2019-02-28T02:43:15.199Z,21.20
2019-02-28T02:45:54.722Z,21.20
2019-02-28T02:48:38.612Z,21.20
2019-02-28T02:51:12.648Z,21.20
2019-02-28T02:53:52.727Z,21.20
2019-02-28T02:56:40.626Z,21.20
2019-02-28T02:59:12.337Z,21.20
2019-02-28T03:01:51.167Z,21.20
2019-02-28T03:04:32.730Z,21.20
2019-02-28T03:07:08.727Z,21.20
2019-02-28T03:09:49.727Z,21.20
2019-02-28T03:15:10.756Z,21.10
2019-02-28T03:17:49.136Z,21.20
2019-02-28T03:20:27.778Z,21.10
2019-02-28T03:23:08.786Z,21.10
2019-02-28T03:25:46.797Z,21.20
2019-02-28T03:28:28.103Z,21.10
2019-02-28T03:31:14.468Z,21.10
2019-02-28T03:33:48.300Z,21.10
2019-02-28T03:36:25.290Z,21.20
2019-02-28T03:39:03.808Z,21.10
2019-02-28T03:41:40.679Z,21.20
2019-02-28T03:44:21.299Z,21.10
2019-02-28T03:47:02.844Z,21.10
2019-02-28T03:49:48.661Z,21.10
2019-02-28T03:52:25.838Z,21.10
2019-02-28T03:55:04.740Z,21.10
2019-02-28T03:57:45.835Z,21.10
2019-02-28T04:00:32.812Z,21.10
2019-02-28T04:03:06.315Z,21.10
2019-02-28T04:05:42.071Z,21.10
2019-02-28T04:08:14.742Z,21.10
2019-02-28T04:10:54.774Z,21.10
2019-02-28T04:13:26.854Z,21.10
2019-02-28T04:16:09.237Z,21.10
2019-02-28T04:18:48.296Z,21.10
2019-02-28T04:21:26.400Z,21.10
2019-02-28T04:24:12.618Z,21.10
2019-02-28T04:26:47.323Z,21.10
2019-02-28T04:29:30.312Z,21.10
2019-02-28T04:32:03.332Z,21.10
2019-02-28T04:34:45.844Z,21.10
2019-02-28T04:37:23.137Z,21.10
2019-02-28T04:40:01.891Z,21.10
2019-02-28T04:42:39.893Z,21.10
2019-02-28T04:45:26.179Z,21.10
2019-02-28T04:48:13.657Z,21.10
2019-02-28T04:50:42.670Z,21.10
2019-02-28T04:53:20.093Z,21.10
2019-02-28T04:55:57.347Z,21.10
2019-02-28T04:58:39.351Z,21.10
2019-02-28T05:01:12.345Z,21.10
2019-02-28T05:03:49.902Z,21.10
2019-02-28T05:06:26.598Z,21.10
2019-02-28T05:09:05.830Z,21.10
2019-02-28T05:11:37.294Z,21.10
2019-02-28T05:14:14.363Z,21.10
2019-02-28T05:16:48.785Z,21.20
2019-02-28T05:19:28.941Z,21.20
2019-02-28T05:22:06.020Z,21.20
2019-02-28T05:24:47.029Z,21.10
2019-02-28T05:27:34.815Z,21.20
2019-02-28T05:30:10.922Z,21.10
2019-02-28T05:32:49.927Z,21.20
2019-02-28T05:35:47.926Z,21.20
2019-02-28T05:38:22.585Z,21.20
2019-02-28T05:41:02.933Z,21.20
2019-02-28T05:43:58.934Z,21.20
2019-02-28T05:46:38.934Z,21.20
2019-02-28T05:49:15.417Z,21.20
2019-02-28T05:51:58.485Z,21.20
2019-02-28T05:54:33.954Z,21.30
2019-02-28T05:57:12.399Z,21.20
2019-02-28T05:59:53.956Z,21.30
2019-02-28T06:02:30.955Z,21.40
2019-02-28T06:05:12.032Z,21.40
2019-02-28T06:07:53.978Z,21.50
2019-02-28T06:10:32.979Z,21.50
2019-02-28T06:13:15.304Z,21.60
2019-02-28T06:15:52.456Z,21.70
2019-02-28T06:18:33.990Z,21.80
2019-02-28T06:21:11.986Z,21.90
2019-02-28T06:23:49.985Z,21.90
2019-02-28T06:26:24.883Z,22.00
2019-02-28T06:29:05.124Z,22.10
2019-02-28T06:31:41.998Z,22.20
2019-02-28T06:34:20.443Z,22.30
2019-02-28T06:37:05.998Z,22.30
2019-02-28T06:39:45.011Z,22.40
2019-02-28T06:42:20.891Z,22.40
2019-02-28T06:45:02.497Z,22.40
2019-02-28T06:47:39.466Z,22.30
2019-02-28T06:50:21.018Z,22.30
2019-02-28T06:52:59.217Z,22.30
2019-02-28T06:55:35.827Z,22.40
2019-02-28T06:58:12.500Z,22.50
2019-02-28T07:00:55.932Z,22.70
2019-02-28T07:03:38.449Z,22.80
2019-02-28T07:06:09.493Z,22.80
2019-02-28T07:08:44.927Z,22.70
2019-02-28T07:11:20.029Z,22.70
2019-02-28T07:13:56.529Z,22.70
2019-02-28T07:16:34.536Z,22.70
2019-02-28T07:19:13.064Z,22.70
2019-02-28T07:21:46.959Z,22.60
2019-02-28T07:24:27.065Z,22.70
2019-02-28T07:27:04.609Z,22.60
2019-02-28T07:29:42.688Z,22.60
2019-02-28T07:32:17.541Z,22.70
2019-02-28T07:34:58.227Z,22.70
2019-02-28T07:37:53.340Z,22.70
2019-02-28T07:40:23.533Z,22.80
2019-02-28T07:43:00.241Z,22.90
2019-02-28T07:45:42.248Z,22.90
2019-02-28T07:48:28.612Z,22.90
2019-02-28T07:51:06.183Z,22.90
2019-02-28T07:53:44.623Z,23.00
2019-02-28T07:56:23.875Z,23.00
2019-02-28T07:59:06.376Z,23.10
2019-02-28T08:01:43.682Z,23.20
2019-02-28T08:04:21.328Z,23.30
2019-02-28T08:07:00.879Z,23.40
2019-02-28T08:09:36.866Z,23.40
2019-02-28T08:12:17.233Z,23.40
2019-02-28T08:15:00.402Z,23.40
2019-02-28T08:17:44.037Z,23.40
2019-02-28T08:20:22.063Z,23.40
2019-02-28T08:22:56.541Z,23.40
2019-02-28T08:25:36.264Z,23.30
2019-02-28T08:28:15.662Z,23.40
2019-02-28T08:30:55.195Z,23.40
2019-02-28T08:33:29.265Z,23.40
2019-02-28T08:36:12.539Z,23.40
2019-02-28T08:38:46.759Z,23.40
2019-02-28T08:41:28.284Z,23.50
2019-02-28T08:44:10.283Z,23.60
2019-02-28T08:46:51.306Z,23.50
2019-02-28T08:49:30.447Z,23.60
2019-02-28T08:52:10.314Z,23.60
2019-02-28T08:54:49.302Z,23.70
2019-02-28T08:57:28.302Z,23.80
2019-02-28T09:00:07.072Z,24.00
2019-02-28T09:02:52.969Z,24.20
2019-02-28T09:05:29.947Z,24.40
2019-02-28T09:08:07.316Z,24.80
2019-02-28T09:10:49.311Z,24.80
2019-02-28T09:13:28.769Z,25.00
2019-02-28T09:16:10.331Z,25.50
2019-02-28T09:18:50.331Z,25.90
2019-02-28T09:21:34.330Z,26.40
2019-02-28T09:24:18.801Z,26.70
2019-02-28T09:27:01.299Z,27.00
2019-02-28T09:29:41.773Z,27.30
2019-02-28T09:32:20.330Z,27.50
2019-02-28T09:34:58.499Z,27.90
2019-02-28T09:37:36.340Z,28.00
2019-02-28T09:40:18.806Z,28.30
2019-02-28T09:42:57.364Z,28.20
2019-02-28T09:45:35.840Z,28.30
2019-02-28T09:48:18.379Z,28.50
2019-02-28T09:50:59.145Z,28.60
2019-02-28T09:53:39.170Z,28.90
2019-02-28T09:56:15.381Z,29.10
2019-02-28T09:58:53.381Z,29.10
2019-02-28T10:01:30.390Z,29.30
2019-02-28T10:04:06.886Z,29.30
2019-02-28T10:06:51.530Z,29.20
2019-02-28T10:09:26.886Z,28.90
2019-02-28T10:12:07.800Z,29.00
2019-02-28T10:14:46.899Z,29.00
2019-02-28T10:17:18.341Z,28.90
2019-02-28T10:19:57.437Z,28.80
2019-02-28T10:22:36.405Z,28.60
2019-02-28T10:25:18.436Z,28.60
2019-02-28T10:28:01.173Z,28.60
2019-02-28T10:30:37.881Z,28.40
2019-02-28T10:33:18.100Z,28.20
2019-02-28T10:35:54.916Z,28.10
2019-02-28T10:38:33.883Z,28.40
2019-02-28T10:41:15.389Z,28.40
2019-02-28T10:43:55.927Z,28.50
2019-02-28T10:46:33.789Z,28.20
2019-02-28T10:49:14.467Z,28.00
2019-02-28T10:51:54.479Z,28.00
2019-02-28T10:54:33.480Z,27.90
2019-02-28T10:57:10.927Z,28.00
2019-02-28T10:59:47.473Z,28.10
2019-02-28T11:02:26.473Z,28.30
2019-02-28T11:05:04.476Z,28.20
2019-02-28T11:07:42.582Z,28.00
2019-02-28T11:10:19.002Z,27.80
2019-02-28T11:12:57.103Z,27.60
2019-02-28T11:15:32.960Z,27.60
2019-02-28T11:18:13.492Z,27.50
2019-02-28T11:20:49.379Z,27.40
2019-02-28T11:23:22.977Z,27.30
2019-02-28T11:26:00.511Z,27.20
2019-02-28T11:28:38.988Z,27.30
2019-02-28T11:31:20.043Z,27.30
2019-02-28T11:33:59.532Z,27.40
2019-02-28T11:36:38.678Z,27.40
2019-02-28T11:39:16.580Z,27.10
2019-02-28T11:41:54.582Z,27.00
2019-02-28T11:44:28.996Z,27.00
2019-02-28T11:49:38.999Z,26.90
2019-02-28T11:52:08.761Z,26.80
2019-02-28T11:54:38.319Z,26.70
2019-02-28T11:57:07.914Z,26.50
2019-02-28T11:59:37.480Z,26.50
2019-02-28T12:02:07.033Z,26.40
2019-02-28T12:04:37.425Z,26.40
2019-02-28T12:07:09.254Z,26.40
2019-02-28T12:09:39.494Z,26.30
2019-02-28T12:12:10.390Z,26.40
2019-02-28T12:14:40.818Z,26.30
2019-02-28T12:17:10.369Z,26.40
2019-02-28T12:19:39.936Z,26.30
2019-02-28T12:22:12.114Z,26.40
2019-02-28T12:24:40.686Z,26.40
2019-02-28T12:27:10.494Z,26.40
2019-02-28T12:29:40.034Z,26.40
2019-02-28T12:32:11.220Z,26.40
2019-02-28T12:34:40.879Z,26.30
2019-02-28T12:37:11.399Z,26.30
2019-02-28T12:39:40.936Z,26.20
2019-02-28T12:42:10.783Z,26.10
2019-02-28T12:44:40.440Z,26.00
2019-02-28T12:47:09.975Z,26.00
2019-02-28T12:49:40.423Z,25.90
2019-02-28T12:52:11.315Z,26.00
2019-02-28T12:54:42.625Z,25.80
2019-02-28T12:57:12.193Z,25.90
2019-02-28T12:59:45.955Z,25.80
2019-02-28T13:02:13.343Z,25.80
2019-02-28T13:04:44.537Z,25.70
2019-02-28T13:07:14.298Z,25.70
2019-02-28T13:09:43.858Z,25.80
2019-02-28T13:12:13.408Z,25.70
2019-02-28T13:14:43.000Z,25.70
2019-02-28T13:17:12.670Z,25.60
2019-02-28T13:19:42.217Z,25.60
2019-02-28T13:22:11.787Z,25.50
2019-02-28T13:24:46.122Z,25.40
2019-02-28T13:27:15.069Z,25.40
2019-02-28T13:29:44.719Z,25.40
2019-02-28T13:32:14.643Z,25.40
2019-02-28T13:34:44.218Z,25.30
2019-02-28T13:37:25.770Z,25.20
2019-02-28T13:39:55.362Z,25.20
2019-02-28T13:42:24.894Z,25.30
2019-02-28T13:44:54.444Z,25.30
2019-02-28T13:47:24.146Z,25.20
2019-02-28T13:49:53.671Z,25.20
2019-02-28T13:52:23.220Z,25.10
2019-02-28T13:54:53.680Z,25.10
2019-02-28T13:57:24.790Z,25.00
2019-02-28T13:59:54.358Z,24.90
2019-02-28T14:02:26.262Z,25.00
2019-02-28T14:04:58.657Z,25.00
2019-02-28T14:07:30.023Z,25.00
2019-02-28T14:09:58.388Z,25.00
2019-02-28T14:12:28.873Z,25.00
2019-02-28T14:14:58.614Z,25.00
2019-02-28T14:17:28.165Z,25.00
2019-02-28T14:19:57.726Z,25.00
2019-02-28T14:22:27.486Z,25.00
2019-02-28T14:24:57.036Z,25.00
2019-02-28T14:27:28.522Z,25.00
2019-02-28T14:29:58.043Z,25.00
2019-02-28T14:32:27.617Z,25.00
2019-02-28T14:34:57.246Z,25.00
2019-02-28T14:37:28.353Z,25.00
2019-02-28T14:39:57.899Z,25.00
2019-02-28T14:42:27.507Z,25.00
2019-02-28T14:44:57.030Z,24.90
2019-02-28T14:47:28.509Z,24.90
2019-02-28T14:49:57.874Z,24.90
2019-02-28T14:52:27.404Z,24.80
2019-02-28T14:54:58.303Z,24.80
2019-02-28T14:57:27.914Z,24.70
2019-02-28T14:59:57.612Z,24.70
2019-02-28T15:02:28.764Z,24.60
2019-02-28T15:04:59.561Z,24.60
2019-02-28T15:07:29.114Z,24.60
2019-02-28T15:09:58.936Z,24.50
2019-02-28T15:12:29.869Z,24.40
2019-02-28T15:14:59.401Z,24.40
2019-02-28T15:17:29.979Z,24.40
2019-02-28T15:19:59.514Z,24.30
2019-02-28T15:22:29.060Z,24.30
2019-02-28T15:24:59.845Z,24.20
2019-02-28T15:27:29.388Z,24.20
2019-02-28T15:29:59.802Z,24.20
2019-02-28T15:32:29.545Z,24.20
2019-02-28T15:35:01.613Z,24.10
2019-02-28T15:37:33.657Z,24.10
2019-02-28T15:40:06.014Z,24.10
2019-02-28T15:42:39.557Z,24.10
2019-02-28T15:45:10.022Z,24.10
2019-02-28T15:47:39.708Z,24.10
2019-02-28T15:50:16.318Z,24.00
2019-02-28T15:52:46.580Z,23.90
2019-02-28T15:55:18.397Z,23.80
2019-02-28T15:57:47.950Z,23.70
2019-02-28T16:00:24.533Z,23.70
2019-02-28T16:02:54.060Z,23.60
2019-02-28T16:05:23.828Z,23.50
2019-02-28T16:07:54.607Z,23.50
2019-02-28T16:10:31.894Z,23.40
2019-02-28T16:12:59.971Z,23.30
2019-02-28T16:15:30.507Z,23.30
2019-02-28T16:18:00.073Z,23.30
2019-02-28T16:20:31.947Z,23.20
2019-02-28T16:23:01.051Z,23.20
2019-02-28T16:25:33.638Z,23.20
2019-02-28T16:28:04.499Z,23.10
2019-02-28T16:30:34.427Z,23.00
2019-02-28T16:33:04.223Z,23.00
2019-02-28T16:35:33.765Z,22.90
2019-02-28T16:38:08.524Z,22.90
2019-02-28T16:40:34.681Z,23.00
2019-02-28T16:43:04.242Z,22.90
2019-02-28T16:45:37.520Z,22.90
2019-02-28T16:48:07.259Z,22.90
2019-02-28T16:50:37.743Z,22.90
2019-02-28T16:53:07.295Z,22.90
2019-02-28T16:55:36.841Z,22.80
2019-02-28T16:58:06.450Z,22.80
2019-02-28T17:00:35.986Z,22.80
2019-02-28T17:03:07.384Z,22.80
2019-02-28T17:05:36.900Z,22.80
2019-02-28T17:08:06.903Z,22.80
2019-02-28T17:10:42.005Z,22.80
2019-02-28T17:13:26.844Z,22.70
2019-02-28T17:16:01.466Z,22.80
2019-02-28T17:18:33.592Z,22.70
2019-02-28T17:21:03.146Z,22.70
2019-02-28T17:23:36.788Z,22.70
2019-02-28T17:26:05.355Z,22.70
2019-02-28T17:28:39.460Z,22.70
2019-02-28T17:31:11.618Z,22.70
2019-02-28T17:33:43.335Z,22.70
2019-02-28T17:36:14.003Z,22.70
2019-02-28T17:38:43.946Z,22.60
2019-02-28T17:41:13.514Z,22.70
2019-02-28T17:43:43.943Z,22.60
2019-02-28T17:46:15.729Z,22.60
2019-02-28T17:49:03.573Z,22.60
2019-02-28T17:51:36.517Z,22.50
2019-02-28T17:54:17.272Z,22.60
2019-02-28T17:57:05.891Z,22.50
2019-02-28T17:59:56.054Z,22.50
2019-02-28T18:02:50.528Z,22.50
2019-02-28T18:05:38.659Z,22.50
2019-02-28T18:08:16.942Z,22.50
2019-02-28T18:11:10.412Z,22.50
2019-02-28T18:13:52.218Z,22.50
2019-02-28T18:16:43.089Z,22.50
2019-02-28T18:19:41.404Z,22.50
2019-02-28T18:22:22.681Z,22.60
2019-02-28T18:25:21.325Z,22.60
2019-02-28T18:28:12.092Z,22.60
2019-02-28T18:31:01.339Z,22.50
2019-02-28T18:33:31.415Z,22.60
2019-02-28T18:36:01.262Z,22.60
2019-02-28T18:38:30.840Z,22.60
2019-02-28T18:41:05.547Z,22.60
2019-02-28T18:43:31.921Z,22.60
2019-02-28T18:46:01.613Z,22.60
2019-02-28T18:48:31.262Z,22.60
2019-02-28T18:51:00.845Z,22.60
2019-02-28T18:53:30.457Z,22.60
2019-02-28T18:56:00.020Z,22.50
2019-02-28T18:58:29.568Z,22.50
2019-02-28T19:00:59.453Z,22.50
2019-02-28T19:03:29.012Z,22.50
2019-02-28T19:05:58.559Z,22.50
2019-02-28T19:08:29.164Z,22.50
2019-02-28T19:10:59.004Z,22.50
2019-02-28T19:13:28.673Z,22.40
2019-02-28T19:15:58.484Z,22.50
2019-02-28T19:18:28.439Z,22.40
2019-02-28T19:20:57.986Z,22.50
2019-02-28T19:23:27.676Z,22.40
2019-02-28T19:25:57.365Z,22.40
2019-02-28T19:28:26.945Z,22.40
2019-02-28T19:30:56.673Z,22.40
2019-02-28T19:33:26.223Z,22.40
2019-02-28T19:35:55.793Z,22.40
2019-02-28T19:38:25.438Z,22.40
2019-02-28T19:40:56.025Z,22.40
2019-02-28T19:43:27.326Z,22.40
2019-02-28T19:45:56.905Z,22.40
2019-02-28T19:48:30.595Z,22.40
2019-02-28T19:51:00.158Z,22.40
2019-02-28T19:53:30.123Z,22.40
2019-02-28T19:56:00.110Z,22.40
2019-02-28T19:58:30.751Z,22.40
2019-02-28T20:01:00.319Z,22.40
2019-02-28T20:03:29.919Z,22.40
2019-02-28T20:05:59.480Z,22.40
2019-02-28T20:08:29.870Z,22.30
2019-02-28T20:11:00.595Z,22.30
2019-02-28T20:13:30.138Z,22.30
2019-02-28T20:16:00.045Z,22.30
2019-02-28T20:18:29.975Z,22.30
2019-02-28T20:20:59.884Z,22.30
2019-02-28T20:23:29.434Z,22.30
2019-02-28T20:25:59.041Z,22.30
2019-02-28T20:28:28.623Z,22.40
2019-02-28T20:30:58.137Z,22.30
2019-02-28T20:33:27.735Z,22.30
2019-02-28T20:35:57.559Z,22.30
2019-02-28T20:38:27.467Z,22.30
2019-02-28T20:40:58.045Z,22.30
2019-02-28T20:43:27.645Z,22.30
2019-02-28T20:45:57.410Z,22.30
2019-02-28T20:48:26.996Z,22.30
2019-02-28T20:50:57.543Z,22.30
2019-02-28T20:53:27.097Z,22.20
2019-02-28T20:55:56.714Z,22.20
2019-02-28T20:58:26.267Z,22.20
2019-02-28T21:00:55.811Z,22.20
2019-02-28T21:03:26.490Z,22.20
2019-02-28T21:05:56.022Z,22.20
2019-02-28T21:08:25.600Z,22.20
2019-02-28T21:10:57.871Z,22.20
2019-02-28T21:13:27.769Z,22.20
2019-02-28T21:15:58.825Z,22.20
2019-02-28T21:18:30.365Z,22.20
2019-02-28T21:21:00.078Z,22.10
2019-02-28T21:23:33.383Z,22.20
2019-02-28T21:26:10.395Z,22.10
2019-02-28T21:28:43.642Z,22.20
2019-02-28T21:31:13.244Z,22.20
2019-02-28T21:33:43.361Z,22.10
2019-02-28T21:36:13.162Z,22.10
2019-02-28T21:38:42.743Z,22.10
2019-02-28T21:41:13.207Z,22.20
2019-02-28T21:43:42.860Z,22.10
2019-02-28T21:46:13.634Z,22.10
2019-02-28T21:48:43.177Z,22.10
2019-02-28T21:51:12.748Z,22.10
2019-02-28T21:53:42.433Z,22.10
2019-02-28T21:56:11.965Z,22.10
2019-02-28T21:58:41.531Z,22.10
2019-02-28T22:01:11.106Z,22.10
2019-02-28T22:03:40.662Z,22.10
2019-02-28T22:06:10.235Z,22.10
2019-02-28T22:08:39.829Z,22.10
2019-02-28T22:11:09.675Z,22.10
2019-02-28T22:13:39.227Z,22.10
2019-02-28T22:16:08.808Z,22.10
2019-02-28T22:18:38.367Z,22.10
2019-02-28T22:21:07.921Z,22.10
2019-02-28T22:23:37.504Z,22.10
2019-02-28T22:26:07.061Z,22.10
2019-02-28T22:28:36.620Z,22.00
2019-02-28T22:31:07.995Z,22.10
2019-02-28T22:33:39.103Z,22.10
2019-02-28T22:36:14.634Z,22.10
2019-02-28T22:38:44.175Z,22.10
2019-02-28T22:41:13.727Z,22.00
2019-02-28T22:43:43.312Z,22.10
2019-02-28T22:46:12.911Z,22.00
2019-02-28T22:48:42.528Z,22.00
2019-02-28T22:51:12.331Z,22.00
2019-02-28T22:53:41.865Z,22.00
2019-02-28T22:56:11.439Z,22.00
2019-02-28T22:58:41.010Z,22.00
2019-02-28T23:01:14.730Z,22.00
2019-02-28T23:03:44.510Z,22.00
2019-02-28T23:06:14.206Z,22.00
2019-02-28T23:08:43.773Z,22.00
2019-02-28T23:11:13.390Z,22.00
2019-02-28T23:13:42.949Z,22.00
2019-02-28T23:16:12.493Z,22.00
2019-02-28T23:18:42.445Z,21.90
2019-02-28T23:21:12.350Z,21.90
2019-02-28T23:23:41.904Z,21.90
2019-02-28T23:26:13.279Z,21.90
2019-02-28T23:28:46.333Z,21.90
2019-02-28T23:31:28.056Z,21.90
2019-02-28T23:34:13.877Z,21.90
2019-02-28T23:36:43.478Z,21.90
2019-02-28T23:39:14.111Z,21.90
2019-02-28T23:41:43.665Z,21.90
2019-02-28T23:44:13.229Z,21.90
2019-02-28T23:46:42.762Z,21.80
2019-02-28T23:49:12.311Z,21.90
2019-02-28T23:51:42.122Z,21.90
2019-02-28T23:54:11.668Z,21.90
2019-02-28T23:56:41.215Z,21.80
2019-02-28T23:59:10.802Z,21.80
